createdAt,value
2023-01-13T00:00:34.230Z,98.87
2023-01-13T00:05:37.476Z,98.33
2023-01-13T00:10:42.573Z,98.36
2023-01-13T00:15:45.211Z,98.25
2023-01-13T00:20:47.756Z,97.86
2023-01-13T00:25:51.063Z,97.16
2023-01-13T00:31:12.870Z,96.78
2023-01-13T00:36:20.609Z,96.73
2023-01-13T00:41:24.868Z,96.13
2023-01-13T00:46:27.028Z,95.33
2023-01-13T00:51:37.244Z,95.57
2023-01-13T00:56:43.031Z,95.22
2023-01-13T01:01:48.964Z,95.37
2023-01-13T01:06:51.999Z,95.37
2023-01-13T01:12:15.039Z,95.30
2023-01-13T01:17:22.938Z,95.48
2023-01-13T01:22:41.706Z,95.66
2023-01-13T01:27:49.704Z,95.41
2023-01-13T01:33:05.370Z,95.38
2023-01-13T01:38:13.523Z,95.08
2023-01-13T01:44:07.277Z,94.86
2023-01-13T01:49:32.530Z,94.43
2023-01-13T01:54:44.311Z,94.59
2023-01-13T02:00:02.534Z,94.21
2023-01-13T02:05:26.695Z,94.14
2023-01-13T02:10:32.364Z,94.35
2023-01-13T02:15:55.528Z,93.79
2023-01-13T02:21:48.269Z,94.10
2023-01-13T02:27:12.312Z,93.75
2023-01-13T02:32:38.449Z,94.05
2023-01-13T02:37:45.089Z,93.96
2023-01-13T02:43:52.679Z,93.87
2023-01-13T02:49:04.510Z,93.65
2023-01-13T02:54:14.837Z,93.06
2023-01-13T02:59:19.586Z,92.88
2023-01-13T03:04:57.721Z,92.53
2023-01-13T03:10:51.442Z,92.79
2023-01-13T03:16:18.178Z,92.27
2023-01-13T03:21:29.452Z,92.48
2023-01-13T03:26:41.338Z,92.30
2023-01-13T03:32:28.112Z,92.06
2023-01-13T03:37:44.171Z,92.18
2023-01-13T03:43:24.911Z,91.78
2023-01-13T03:48:32.720Z,91.80
2023-01-13T03:53:52.836Z,91.98
2023-01-13T03:59:05.177Z,91.66
2023-01-13T04:04:16.912Z,91.45
2023-01-13T04:09:56.765Z,91.42
2023-01-13T04:14:59.228Z,91.63
2023-01-13T04:20:01.491Z,90.90
2023-01-13T04:25:04.619Z,90.71
2023-01-13T04:30:08.587Z,90.75
2023-01-13T04:35:14.019Z,90.63
2023-01-13T04:40:23.821Z,90.17
2023-01-13T04:45:29.482Z,89.70
2023-01-13T04:50:35.770Z,90.13
2023-01-13T04:55:44.533Z,89.66
2023-01-13T05:00:50.774Z,89.60
2023-01-13T05:05:52.959Z,89.35
2023-01-13T05:10:55.831Z,89.27
2023-01-13T05:16:20.144Z,89.39
2023-01-13T05:21:44.551Z,89.57
2023-01-13T05:26:47.000Z,89.41
2023-01-13T05:31:49.439Z,89.37
2023-01-13T05:36:52.130Z,89.36
2023-01-13T05:42:13.960Z,89.37
2023-01-13T05:47:19.031Z,89.29
2023-01-13T05:52:24.556Z,89.15
2023-01-13T05:57:27.189Z,88.93
2023-01-13T06:02:35.136Z,88.69
2023-01-13T06:07:44.048Z,88.60
2023-01-13T06:12:46.508Z,88.25
2023-01-13T06:17:51.242Z,88.32
2023-01-13T06:23:00.621Z,88.05
2023-01-13T06:28:05.625Z,88.36
2023-01-13T06:33:13.822Z,88.57
2023-01-13T06:38:22.751Z,88.21
2023-01-13T06:43:25.231Z,88.29
2023-01-13T06:48:33.198Z,88.25
2023-01-13T06:53:38.127Z,88.11
2023-01-13T06:58:40.836Z,88.10
2023-01-13T07:03:43.459Z,88.16
2023-01-13T07:08:45.649Z,88.09
2023-01-13T07:14:10.314Z,88.21
2023-01-13T07:19:13.139Z,88.49
2023-01-13T07:24:15.857Z,88.38
2023-01-13T07:29:18.697Z,88.31
2023-01-13T07:34:21.450Z,88.27
2023-01-13T07:39:24.252Z,88.39
2023-01-13T07:44:29.648Z,88.20
2023-01-13T07:49:35.642Z,88.14
2023-01-13T07:54:41.076Z,88.02
2023-01-13T07:59:46.755Z,88.02
2023-01-13T08:04:58.006Z,87.78
2023-01-13T08:10:08.321Z,87.47
2023-01-13T08:15:21.637Z,87.11
2023-01-13T08:20:30.216Z,86.97
2023-01-13T08:25:35.628Z,86.96
2023-01-13T08:30:47.735Z,86.71
2023-01-13T08:35:54.597Z,86.73
2023-01-13T08:40:57.357Z,86.68
2023-01-13T08:46:04.907Z,86.53
2023-01-13T08:51:09.445Z,86.58
2023-01-13T08:56:14.639Z,86.56
2023-01-13T09:01:21.719Z,86.28
2023-01-13T09:06:28.840Z,86.34
2023-01-13T09:11:56.064Z,86.24
2023-01-13T09:16:59.229Z,86.51
2023-01-13T09:22:06.946Z,86.55
2023-01-13T09:27:28.497Z,85.93
2023-01-13T09:32:34.264Z,85.88
2023-01-13T09:37:42.031Z,85.18
2023-01-13T09:43:49.728Z,83.51
2023-01-13T09:48:52.635Z,83.53
2023-01-13T09:54:00.250Z,82.61
2023-01-13T09:59:03.280Z,82.15
2023-01-13T10:04:14.249Z,81.08
2023-01-13T10:09:26.244Z,81.27
2023-01-13T10:14:37.855Z,81.17
2023-01-13T10:20:11.286Z,81.42
2023-01-13T10:25:38.894Z,80.51
2023-01-13T10:30:48.863Z,80.46
2023-01-13T10:36:01.287Z,80.58
2023-01-13T10:41:20.417Z,80.07
2023-01-13T10:46:24.457Z,79.90
2023-01-13T10:51:30.152Z,80.51
2023-01-13T10:56:37.743Z,79.75
2023-01-13T11:02:01.186Z,79.90
2023-01-13T11:07:18.848Z,79.40
2023-01-13T11:12:37.171Z,79.45
2023-01-13T11:18:00.581Z,78.89
2023-01-13T11:23:14.245Z,78.41
2023-01-13T11:28:56.247Z,79.31
2023-01-13T11:34:16.464Z,79.35
2023-01-13T11:39:44.712Z,79.25
2023-01-13T11:44:56.585Z,79.58
2023-01-13T11:50:00.355Z,79.57
2023-01-13T11:55:49.834Z,79.67
2023-01-13T12:00:58.162Z,79.68
2023-01-13T12:06:38.390Z,79.95
2023-01-13T12:12:22.947Z,80.06
2023-01-13T12:17:42.768Z,80.23
2023-01-13T12:22:52.234Z,80.12
2023-01-13T12:28:14.239Z,80.13
2023-01-13T12:33:59.182Z,79.60
2023-01-13T12:39:18.570Z,80.00
2023-01-13T12:44:21.403Z,79.62
2023-01-13T12:50:03.011Z,79.75
2023-01-13T12:55:12.684Z,79.56
2023-01-13T13:00:20.174Z,79.86
2023-01-13T13:05:39.773Z,80.97
2023-01-13T13:11:02.238Z,81.03
2023-01-13T13:16:41.652Z,81.14
2023-01-13T13:22:41.044Z,81.17
2023-01-13T13:27:53.308Z,80.89
2023-01-13T13:33:33.705Z,81.20
2023-01-13T13:39:21.221Z,80.81
2023-01-13T13:44:50.643Z,80.96
2023-01-13T13:49:56.253Z,81.15
2023-01-13T13:55:15.840Z,81.44
2023-01-13T14:00:41.297Z,81.79
2023-01-13T14:05:55.972Z,81.64
2023-01-13T14:10:58.191Z,81.70
2023-01-13T14:16:15.222Z,81.95
2023-01-13T14:21:31.000Z,82.28
2023-01-13T14:26:33.636Z,82.59
2023-01-13T14:31:38.487Z,82.58
2023-01-13T14:36:53.989Z,82.34
2023-01-13T14:42:02.476Z,82.70
2023-01-13T14:47:33.166Z,83.14
2023-01-13T14:52:49.385Z,83.47
2023-01-13T14:58:25.285Z,83.50
2023-01-13T15:03:42.773Z,83.42
2023-01-13T15:08:48.280Z,83.59
2023-01-13T15:13:59.187Z,83.63
2023-01-13T15:19:04.291Z,83.72
2023-01-13T15:24:09.367Z,83.50
2023-01-13T15:29:17.148Z,83.73
2023-01-13T15:34:19.586Z,83.76
2023-01-13T15:39:22.189Z,83.86
2023-01-13T15:44:44.162Z,84.11
2023-01-13T15:49:47.251Z,84.37
2023-01-13T15:54:51.586Z,84.48
2023-01-13T16:00:17.674Z,84.63
2023-01-13T16:05:23.480Z,84.69
2023-01-13T16:10:32.398Z,84.89
2023-01-13T16:15:37.344Z,85.09
2023-01-13T16:20:46.019Z,85.24
2023-01-13T16:25:49.349Z,85.51
2023-01-13T16:30:51.930Z,85.51
2023-01-13T16:36:13.688Z,85.79
2023-01-13T16:41:16.539Z,85.85
2023-01-13T16:46:34.474Z,85.94
2023-01-13T16:51:40.390Z,86.08
2023-01-13T16:56:44.535Z,86.16
2023-01-13T17:01:49.223Z,86.18
2023-01-13T17:07:01.902Z,86.33
2023-01-13T17:12:07.195Z,86.31
2023-01-13T17:17:25.598Z,86.37
2023-01-13T17:22:28.304Z,86.29
2023-01-13T17:27:33.405Z,86.56
2023-01-13T17:32:47.157Z,86.55
2023-01-13T17:37:53.370Z,86.75
2023-01-13T17:43:01.476Z,86.81
2023-01-13T17:48:18.025Z,86.86
2023-01-13T17:53:21.582Z,87.09
2023-01-13T17:58:26.950Z,87.98
2023-01-13T18:03:29.495Z,89.14
2023-01-13T18:08:44.642Z,89.52
2023-01-13T18:13:52.295Z,89.77
2023-01-13T18:19:36.631Z,90.21
2023-01-13T18:25:08.745Z,90.54
2023-01-13T18:30:26.623Z,90.96
2023-01-13T18:35:31.978Z,91.81
2023-01-13T18:40:49.957Z,92.27
2023-01-13T18:46:00.716Z,92.89
2023-01-13T18:51:03.556Z,93.15
2023-01-13T18:56:11.589Z,93.51
2023-01-13T19:01:14.189Z,94.00
2023-01-13T19:06:16.885Z,94.91
2023-01-13T19:11:23.630Z,95.09
2023-01-13T19:16:26.103Z,95.91
2023-01-13T19:21:28.495Z,96.45
2023-01-13T19:26:30.745Z,96.70
2023-01-13T19:31:33.499Z,97.76
2023-01-13T19:36:36.218Z,98.46
2023-01-13T19:41:59.209Z,98.95
2023-01-13T19:47:11.387Z,99.14
2023-01-13T19:52:14.543Z,99.73
2023-01-13T19:57:20.363Z,99.41
2023-01-13T20:02:31.593Z,99.46
2023-01-13T20:07:35.429Z,99.44
2023-01-13T20:12:38.584Z,99.54
2023-01-13T20:17:43.545Z,99.60
2023-01-13T20:22:47.656Z,99.87
2023-01-13T20:27:53.153Z,99.91
2023-01-13T20:32:56.056Z,99.97
2023-01-13T20:38:07.216Z,99.95
2023-01-13T20:43:10.972Z,99.94
2023-01-13T20:48:14.512Z,100.00
2023-01-13T20:53:17.387Z,100.00
2023-01-13T20:58:20.159Z,100.00
2023-01-13T21:03:22.945Z,100.00
2023-01-13T21:08:25.348Z,100.00
2023-01-13T21:13:47.858Z,100.00
2023-01-13T21:19:10.868Z,100.00
2023-01-13T21:24:15.797Z,100.00
2023-01-13T21:29:18.319Z,100.00
2023-01-13T21:34:20.720Z,100.00
2023-01-13T21:39:26.027Z,100.00
2023-01-13T21:44:47.159Z,100.00
2023-01-13T21:49:52.278Z,100.00
2023-01-13T21:55:13.984Z,100.00
2023-01-13T22:00:21.281Z,100.00
2023-01-13T22:05:29.288Z,100.00
2023-01-13T22:10:35.196Z,100.00
2023-01-13T22:15:38.310Z,100.00
2023-01-13T22:20:42.131Z,100.00
2023-01-13T22:25:47.020Z,100.00
2023-01-13T22:30:51.185Z,100.00
2023-01-13T22:35:56.689Z,100.00
2023-01-13T22:41:00.506Z,100.00
2023-01-13T22:46:12.333Z,100.00
2023-01-13T22:51:16.353Z,100.00
2023-01-13T22:56:21.914Z,100.00
2023-01-13T23:01:28.233Z,100.00
2023-01-13T23:06:33.857Z,100.00
2023-01-13T23:11:36.744Z,100.00
2023-01-13T23:16:42.059Z,100.00
2023-01-13T23:21:44.805Z,100.00
2023-01-13T23:26:50.601Z,100.00
2023-01-13T23:31:53.292Z,100.00
2023-01-13T23:36:55.540Z,100.00
2023-01-13T23:41:59.532Z,100.00
2023-01-13T23:47:01.977Z,100.00
2023-01-13T23:52:04.650Z,100.00
2023-01-13T23:57:07.442Z,100.00
